Time;durP1;ratioP1;P1;durP2;ratioP2;P2;SDS_P1;SDS_P2;PMS_P1;PMS_P2;Temp;Humidity;BMP_temperature;BMP_pressure;BME280_temperature;BME280_humidity;BME280_pressure;Samples;Min_cycle;Max_cycle;Signal;HPM_P1;HPM_P2
2021/09/20 00:01:11;;;;;;;;;15.50;5.50;;;;;13.82;100.00;101076.53;5076136;27;46232;-68
2021/09/20 00:03:37;;;;;;;;;9.50;4.75;;;;;13.84;100.00;101082.63;5076097;27;45234;-68
2021/09/20 00:06:03;;;;;;;;;8.00;5.50;;;;;13.77;100.00;101068.81;5076075;27;45307;-66
2021/09/20 00:08:28;;;;;;;;;4.25;3.00;;;;;13.76;100.00;101053.03;5091788;27;45340;-65
2021/09/20 00:10:54;;;;;;;;;6.50;4.00;;;;;13.80;100.00;101059.88;5076048;27;46533;-66
2021/09/20 00:13:19;;;;;;;;;3.75;0.75;;;;;13.79;100.00;101064.34;5075622;27;45365;-65
2021/09/20 00:15:44;;;;;;;;;1.25;1.25;;;;;13.73;100.00;101027.56;5075716;27;45547;-70
2021/09/20 00:18:10;;;;;;;;;4.00;4.00;;;;;13.67;100.00;100993.50;5091972;27;45466;-72
2021/09/20 00:20:35;;;;;;;;;3.00;1.00;;;;;13.65;100.00;100987.41;5075710;27;45389;-69
2021/09/20 00:23:00;;;;;;;;;4.00;3.00;;;;;13.76;100.00;101029.22;5075553;27;45366;-71
2021/09/20 00:25:26;;;;;;;;;7.25;5.00;;;;;-146.80;100.00;64830.25;5079496;28;45408;-74
2021/09/20 00:27:52;;;;;;;;;4.40;3.00;;;;;-146.80;100.00;64830.25;4906386;28;1622127;-69
2021/09/20 00:30:22;;;;;;;;;5.25;4.00;;;;;-146.80;100.00;64830.25;4781142;28;1437553;-68
2021/09/20 00:32:49;;;;;;;;;9.00;2.25;;;;;-146.80;100.00;64830.25;3626381;28;20974391;-65
2021/09/20 00:35:14;;;;;;;;;5.00;4.00;;;;;-146.80;100.00;64830.25;1670293;28;41131132;-65
2021/09/20 00:37:40;;;;;;;;;;;;;;;-146.80;100.00;64830.25;998460;27;59656099;-67
2021/09/20 00:40:06;;;;;;;;;4.25;2.00;;;;;-146.80;100.00;64830.25;5113938;28;13482;-66
2021/09/20 00:42:32;;;;;;;;;1.25;1.25;;;;;-146.80;100.00;64830.25;5116872;27;8812;-65
2021/09/20 00:44:57;;;;;;;;;6.50;3.25;;;;;-146.80;100.00;64830.25;5110677;27;28821;-66
2021/09/20 00:47:23;;;;;;;;;6.00;3.50;;;;;-146.80;100.00;64830.25;5093082;28;204659;-65
2021/09/20 00:49:48;;;;;;;;;7.00;5.00;;;;;-146.80;100.00;64830.25;5101563;27;28379;-66
2021/09/20 00:52:14;;;;;;;;;5.25;3.50;;;;;-146.80;100.00;64830.25;5097717;27;28362;-66
2021/09/20 00:54:39;;;;;;;;;4.75;4.50;;;;;-146.80;100.00;64830.25;5088858;27;45478;-67
2021/09/20 00:57:06;;;;;;;;;3.75;2.75;;;;;-146.80;100.00;64830.25;5080763;27;45366;-64
2021/09/20 00:59:31;;;;;;;;;3.00;2.50;;;;;-146.80;100.00;64830.25;5082232;27;45325;-66
2021/09/20 01:01:57;;;;;;;;;3.50;3.50;;;;;-146.80;100.00;64830.25;5082555;28;45278;-67
2021/09/20 01:04:22;;;;;;;;;4.25;4.00;;;;;-146.80;100.00;64830.25;5081778;27;45437;-66
2021/09/20 01:06:48;;;;;;;;;4.00;1.50;;;;;-146.80;100.00;64830.25;5098120;27;45590;-65
2021/09/20 01:09:13;;;;;;;;;8.75;4.00;;;;;-146.80;100.00;64830.25;5083625;27;45264;-65
2021/09/20 01:11:39;;;;;;;;;3.00;2.25;;;;;-146.80;100.00;64830.25;5089710;27;45513;-65
2021/09/20 01:14:04;;;;;;;;;7.00;3.50;;;;;-146.80;100.00;64830.25;5086601;28;45792;-62
2021/09/20 01:16:30;;;;;;;;;4.50;3.50;;;;;-146.80;100.00;64830.25;5080233;27;45449;-64
2021/09/20 01:18:55;;;;;;;;;6.00;4.50;;;;;-146.80;100.00;64830.25;5081887;27;45276;-63
2021/09/20 01:21:21;;;;;;;;;5.00;3.25;;;;;-146.80;100.00;64830.25;5081858;27;45383;-63
2021/09/20 01:23:46;;;;;;;;;4.75;3.75;;;;;-146.80;100.00;64830.25;5082439;27;45354;-63
2021/09/20 01:26:13;;;;;;;;;5.50;3.00;;;;;-146.80;100.00;64830.25;5083063;27;45427;-67
2021/09/20 01:28:39;;;;;;;;;5.00;5.00;;;;;-146.80;100.00;64830.25;5082179;28;45277;-66
2021/09/20 01:31:05;;;;;;;;;7.50;5.75;;;;;-146.80;100.00;64830.25;5082621;27;45231;-66
2021/09/20 01:33:30;;;;;;;;;8.00;4.25;;;;;-146.80;100.00;64830.25;5083772;27;46073;-65
2021/09/20 01:35:56;;;;;;;;;4.75;3.75;;;;;-146.80;100.00;64830.25;5082559;27;45330;-64
2021/09/20 01:38:22;;;;;;;;;3.00;3.00;;;;;-146.80;100.00;64830.25;5097331;27;45327;-65
2021/09/20 01:40:47;;;;;;;;;4.00;3.00;;;;;-146.80;100.00;64830.25;5081176;28;45533;-68
2021/09/20 01:43:13;;;;;;;;;2.00;2.00;;;;;-146.80;100.00;64830.25;5078719;27;47185;-69
2021/09/20 01:45:38;;;;;;;;;8.00;5.00;;;;;-146.80;100.00;64830.25;5084086;28;45401;-65
2021/09/20 01:48:04;;;;;;;;;4.75;4.50;;;;;-146.80;100.00;64830.25;5084261;27;45320;-61
2021/09/20 01:50:30;;;;;;;;;4.50;2.25;;;;;-146.80;100.00;64830.25;5086906;27;44755;-64
2021/09/20 01:52:55;;;;;;;;;2.50;2.50;;;;;-146.80;100.00;64830.25;5084095;27;45444;-62
2021/09/20 01:55:21;;;;;;;;;7.75;4.50;;;;;-146.80;100.00;64830.25;5087357;27;45469;-64
2021/09/20 01:57:46;;;;;;;;;3.50;3.50;;;;;-146.80;100.00;64830.25;5091259;27;42515;-63
2021/09/20 02:00:13;;;;;;;;;6.50;4.50;;;;;-146.80;100.00;64830.25;5088744;28;44769;-64
2021/09/20 02:02:40;;;;;;;;;5.50;2.00;;;;;-146.80;100.00;64830.25;5086927;27;46482;-64
2021/09/20 02:05:07;;;;;;;;;3.00;1.75;;;;;-146.80;100.00;64830.25;5085312;27;45220;-64
2021/09/20 02:07:33;;;;;;;;;5.75;2.00;;;;;-146.80;100.00;64830.25;5089137;27;45253;-64
2021/09/20 02:09:59;;;;;;;;;5.00;4.00;;;;;-146.80;100.00;64830.25;5089886;27;45246;-61
2021/09/20 02:12:24;;;;;;;;;7.00;5.00;;;;;-146.80;100.00;64830.25;5091532;27;42358;-67
2021/09/20 02:14:50;;;;;;;;;6.00;6.00;;;;;-146.80;100.00;64830.25;5091693;27;44785;-63
2021/09/20 02:17:15;;;;;;;;;8.00;5.00;;;;;-146.80;100.00;64830.25;5093231;27;28333;-65
2021/09/20 02:19:41;;;;;;;;;5.50;4.25;;;;;-146.80;100.00;64830.25;5104192;27;28558;-67
2021/09/20 02:22:06;;;;;;;;;3.25;3.25;;;;;-146.80;100.00;64830.25;5103819;27;28417;-67
2021/09/20 02:24:32;;;;;;;;;6.25;4.00;;;;;-146.80;100.00;64830.25;5112156;27;8933;-64
2021/09/20 02:26:58;;;;;;;;;5.00;3.50;;;;;-146.80;100.00;64830.25;5098290;28;28400;-63
2021/09/20 02:29:24;;;;;;;;;6.00;5.25;;;;;-146.80;100.00;64830.25;5109338;27;28596;-62
2021/09/20 02:31:49;;;;;;;;;5.50;3.75;;;;;-146.80;100.00;64830.25;5091718;28;29921;-65
2021/09/20 02:34:15;;;;;;;;;5.50;4.00;;;;;-146.80;100.00;64830.25;5108971;27;28280;-62
2021/09/20 02:36:40;;;;;;;;;4.00;3.00;;;;;-146.80;100.00;64830.25;5092674;27;28654;-62
2021/09/20 02:39:05;;;;;;;;;6.25;4.00;;;;;-146.80;100.00;64830.25;5099621;27;28587;-62
2021/09/20 02:41:31;;;;;;;;;2.75;2.00;;;;;-146.80;100.00;64830.25;5101595;28;28472;-65
2021/09/20 02:43:56;;;;;;;;;5.00;5.00;;;;;-146.80;100.00;64830.25;5110780;27;24132;-63
2021/09/20 02:46:22;;;;;;;;;3.00;3.00;;;;;-146.80;100.00;64830.25;5112064;27;8771;-67
2021/09/20 02:48:48;;;;;;;;;5.50;2.75;;;;;-146.80;100.00;64830.25;5112894;27;8779;-61
2021/09/20 02:51:13;;;;;;;;;5.00;4.00;;;;;-146.80;100.00;64830.25;5112766;28;8775;-62
2021/09/20 02:53:38;;;;;;;;;4.25;4.00;;;;;-146.80;100.00;64830.25;5112435;27;8819;-61
2021/09/20 02:56:06;;;;;;;;;5.75;4.00;;;;;-146.80;100.00;64830.25;5112583;27;8803;-63
2021/09/20 02:58:32;;;;;;;;;3.00;3.00;;;;;-146.80;100.00;64830.25;5111774;27;8773;-63
2021/09/20 03:00:57;;;;;;;;;5.50;5.00;;;;;-146.80;100.00;64830.25;5111738;27;10040;-63
2021/09/20 03:03:23;;;;;;;;;5.50;3.00;;;;;-146.80;100.00;64830.25;5110047;27;27832;-61
2021/09/20 03:05:48;;;;;;;;;5.75;4.00;;;;;-146.80;100.00;64830.25;5083010;27;45415;-64
2021/09/20 03:08:14;;;;;;;;;4.00;4.00;;;;;-146.80;100.00;64830.25;5080193;27;45210;-66
2021/09/20 03:10:39;;;;;;;;;7.75;5.75;;;;;-146.80;100.00;64830.25;5094083;27;45219;-63
2021/09/20 03:13:05;;;;;;;;;10.75;5.25;;;;;-146.80;100.00;64830.25;5080176;27;45252;-63
2021/09/20 03:15:30;;;;;;;;;7.50;4.50;;;;;-146.80;100.00;64830.25;5076589;27;45493;-69
2021/09/20 03:17:56;;;;;;;;;6.50;5.25;;;;;-146.80;100.00;64830.25;5077195;28;45336;-67
2021/09/20 03:20:22;;;;;;;;;7.00;6.00;;;;;-146.80;100.00;64830.25;5092642;27;47464;-68
2021/09/20 03:22:47;;;;;;;;;6.25;5.25;;;;;-146.80;100.00;64830.25;5075854;28;45373;-64
2021/09/20 03:25:14;;;;;;;;;4.75;4.00;;;;;-146.80;100.00;64830.25;5076496;27;45299;-63
2021/09/20 03:27:40;;;;;;;;;5.50;5.00;;;;;-146.80;100.00;64830.25;5076601;27;45512;-62
2021/09/20 03:30:07;;;;;;;;;6.25;4.50;;;;;-146.80;100.00;64830.25;5074809;28;47195;-63
2021/09/20 03:32:32;;;;;;;;;5.25;5.25;;;;;-146.80;100.00;64830.25;5076280;27;45426;-65
2021/09/20 03:34:58;;;;;;;;;3.00;2.75;;;;;-146.80;100.00;64830.25;5076587;27;45400;-65
2021/09/20 03:37:24;;;;;;;;;7.50;6.50;;;;;-146.80;100.00;64830.25;5076706;27;45258;-66
2021/09/20 03:39:50;;;;;;;;;7.25;5.50;;;;;-146.80;100.00;64830.25;5075208;28;48157;-66
2021/09/20 03:42:15;;;;;;;;;7.00;6.00;;;;;-146.80;100.00;64830.25;5091821;27;45264;-64
2021/09/20 03:44:40;;;;;;;;;7.50;6.00;;;;;-146.80;100.00;64830.25;5076363;27;45633;-60
2021/09/20 03:47:06;;;;;;;;;6.50;6.25;;;;;-146.80;100.00;64830.25;5076475;27;45396;-61
2021/09/20 03:49:31;;;;;;;;;10.00;7.25;;;;;-146.80;100.00;64830.25;5076026;27;46394;-65
2021/09/20 03:51:57;;;;;;;;;4.75;4.50;;;;;-146.80;100.00;64830.25;5074791;28;45322;-61
2021/09/20 03:54:22;;;;;;;;;1.25;1.25;;;;;-146.80;100.00;64830.25;5091761;27;45303;-64
2021/09/20 03:56:48;;;;;;;;;9.75;7.50;;;;;-146.80;100.00;64830.25;5076730;27;45361;-61
2021/09/20 03:59:13;;;;;;;;;8.25;6.75;;;;;-146.80;100.00;64830.25;5074603;28;45377;-63
2021/09/20 04:01:38;;;;;;;;;6.75;5.50;;;;;-146.80;100.00;64830.25;5076066;27;45401;-67
2021/09/20 04:04:04;;;;;;;;;6.00;4.75;;;;;-146.80;100.00;64830.25;5075910;27;45342;-63
2021/09/20 04:06:29;;;;;;;;;8.25;5.00;;;;;-146.80;100.00;64830.25;5075420;27;45361;-62
2021/09/20 04:09:00;;;;;;;;;10.25;6.00;;;;;-146.80;100.00;64830.25;5075552;27;46241;-65
2021/09/20 04:11:25;;;;;;;;;8.00;5.25;;;;;-146.80;100.00;64830.25;5075754;27;45426;-64
2021/09/20 04:13:50;;;;;;;;;6.50;4.75;;;;;-146.80;100.00;64830.25;5074810;28;45299;-67
2021/09/20 04:16:16;;;;;;;;;7.75;6.00;;;;;-146.80;100.00;64830.25;5074359;28;45631;-69
2021/09/20 04:18:41;;;;;;;;;5.00;4.75;;;;;-146.80;100.00;64830.25;5075973;27;45405;-67
2021/09/20 04:21:07;;;;;;;;;8.50;7.50;;;;;-146.80;100.00;64830.25;5076130;28;45231;-64
2021/09/20 04:23:32;;;;;;;;;12.25;6.75;;;;;-146.80;100.00;64830.25;5075630;27;45525;-61
2021/09/20 04:25:57;;;;;;;;;4.00;4.00;;;;;-146.80;100.00;64830.25;5075690;27;45262;-66
2021/09/20 04:28:23;;;;;;;;;9.50;7.00;;;;;-146.80;100.00;64830.25;5075541;28;46576;-63
2021/09/20 04:30:48;;;;;;;;;9.25;6.00;;;;;-146.80;100.00;64830.25;5075818;28;45434;-63
2021/09/20 04:33:16;;;;;;;;;5.00;5.00;;;;;-146.80;100.00;64830.25;5075650;28;45363;-62
2021/09/20 04:35:43;;;;;;;;;9.25;6.00;;;;;-146.80;100.00;64830.25;5074448;28;45521;-61
2021/09/20 04:38:09;;;;;;;;;6.25;3.00;;;;;-146.80;100.00;64830.25;5075478;27;46459;-64
2021/09/20 04:40:35;;;;;;;;;7.00;6.00;;;;;-146.80;100.00;64830.25;5075885;27;45272;-62
2021/09/20 04:43:02;;;;;;;;;6.00;4.50;;;;;-146.80;100.00;64830.25;5075640;27;45366;-63
2021/09/20 04:45:28;;;;;;;;;7.75;6.00;;;;;-146.80;100.00;64830.25;5075956;27;45324;-62
2021/09/20 04:47:53;;;;;;;;;6.75;4.75;;;;;-146.80;100.00;64830.25;5076003;28;45480;-60
2021/09/20 04:50:19;;;;;;;;;6.75;5.00;;;;;-146.80;100.00;64830.25;5075353;27;45330;-62
2021/09/20 04:52:44;;;;;;;;;4.50;3.75;;;;;-146.80;100.00;64830.25;5075301;27;45519;-62
2021/09/20 04:55:09;;;;;;;;;10.50;8.25;;;;;-146.80;100.00;64830.25;5075419;27;45361;-61
2021/09/20 04:57:36;;;;;;;;;10.25;6.00;;;;;-146.80;100.00;64830.25;5074805;27;45517;-65
2021/09/20 05:00:04;;;;;;;;;5.50;5.00;;;;;-146.80;100.00;64830.25;5074956;27;45580;-62
2021/09/20 05:02:29;;;;;;;;;6.75;5.50;;;;;-146.80;100.00;64830.25;5075087;27;45401;-60
2021/09/20 05:04:55;;;;;;;;;5.25;5.00;;;;;-146.80;100.00;64830.25;5075513;27;45563;-62
2021/09/20 05:07:20;;;;;;;;;6.75;5.00;;;;;-146.80;100.00;64830.25;5090682;27;48336;-68
2021/09/20 05:09:45;;;;;;;;;9.00;6.00;;;;;-146.80;100.00;64830.25;5074859;27;45201;-63
2021/09/20 05:12:11;;;;;;;;;6.50;6.00;;;;;-146.80;100.00;64830.25;5074870;27;45585;-63
2021/09/20 05:14:36;;;;;;;;;6.00;6.00;;;;;-146.80;100.00;64830.25;5075281;27;45211;-62
2021/09/20 05:17:04;;;;;;;;;8.75;7.50;;;;;-146.80;100.00;64830.25;5074479;27;46377;-62
2021/09/20 05:19:29;;;;;;;;;8.00;8.00;;;;;-146.80;100.00;64830.25;5077500;27;45462;-62
2021/09/20 05:21:55;;;;;;;;;9.50;7.25;;;;;-146.80;100.00;64830.25;5078797;27;45384;-60
2021/09/20 05:24:20;;;;;;;;;8.00;6.00;;;;;-146.80;100.00;64830.25;5078680;27;45629;-65
2021/09/20 05:26:46;;;;;;;;;11.00;7.00;;;;;-146.80;100.00;64830.25;5078534;27;46933;-65
2021/09/20 05:29:12;;;;;;;;;5.00;5.00;;;;;-146.80;100.00;64830.25;5078525;28;45283;-64
2021/09/20 05:31:37;;;;;;;;;8.25;6.50;;;;;-146.80;100.00;64830.25;5078282;28;45492;-66
2021/09/20 05:34:02;;;;;;;;;8.00;6.00;;;;;-146.80;100.00;64830.25;5078470;27;45573;-66
2021/09/20 05:36:28;;;;;;;;;7.50;6.25;;;;;-146.80;100.00;64830.25;5077955;27;46366;-66
2021/09/20 05:38:53;;;;;;;;;6.00;6.00;;;;;-146.80;100.00;64830.25;5078752;27;45289;-68
2021/09/20 05:41:18;;;;;;;;;7.00;4.00;;;;;-146.80;100.00;64830.25;5078273;27;45430;-63
2021/09/20 05:43:44;;;;;;;;;5.00;5.00;;;;;-146.80;100.00;64830.25;5076862;28;45595;-63
2021/09/20 05:46:09;;;;;;;;;8.75;6.50;;;;;-146.80;100.00;64830.25;5076494;28;46060;-66
2021/09/20 05:48:35;;;;;;;;;8.00;8.00;;;;;-146.80;100.00;64830.25;5077006;28;45255;-76
2021/09/20 05:51:01;;;;;;;;;8.00;8.00;;;;;-146.80;100.00;64830.25;5078052;27;45415;-68
2021/09/20 05:53:26;;;;;;;;;9.25;7.00;;;;;-146.80;100.00;64830.25;5078749;27;45239;-70
2021/09/20 05:55:51;;;;;;;;;10.00;9.00;;;;;-146.80;100.00;64830.25;5077542;27;45453;-71
2021/09/20 05:58:17;;;;;;;;;14.00;8.50;;;;;-146.80;100.00;64830.25;5077576;27;45223;-68
2021/09/20 06:00:43;;;;;;;;;11.50;8.50;;;;;-146.80;100.00;64830.25;5077928;27;45395;-63
2021/09/20 06:03:09;;;;;;;;;10.50;7.00;;;;;-146.80;100.00;64830.25;5076742;27;45462;-64
2021/09/20 06:05:38;;;;;;;;;8.25;8.25;;;;;-146.80;100.00;64830.25;5076949;27;46403;-65
2021/09/20 06:08:05;;;;;;;;;12.50;8.00;;;;;-146.80;100.00;64830.25;5077527;27;45341;-66
2021/09/20 06:10:31;;;;;;;;;9.00;9.00;;;;;-146.80;100.00;64830.25;5077675;27;45245;-70
2021/09/20 06:12:57;;;;;;;;;15.00;10.00;;;;;-146.80;100.00;64830.25;5076295;28;45248;-69
2021/09/20 06:15:22;;;;;;;;;7.00;7.00;;;;;-146.80;100.00;64830.25;5075406;28;47003;-69
2021/09/20 06:17:48;;;;;;;;;12.00;8.25;;;;;-146.80;100.00;64830.25;5076721;27;45242;-68
2021/09/20 06:20:15;;;;;;;;;12.25;10.00;;;;;-146.80;100.00;64830.25;5077167;27;45410;-63
2021/09/20 06:22:41;;;;;;;;;13.50;13.50;;;;;-146.80;100.00;64830.25;5077301;28;45465;-63
2021/09/20 06:25:07;;;;;;;;;12.00;12.00;;;;;-146.80;100.00;64830.25;5077153;27;46239;-63
2021/09/20 06:27:33;;;;;;;;;17.25;17.00;;;;;-146.80;100.00;64830.25;5077567;27;45430;-67
2021/09/20 06:29:59;;;;;;;;;15.50;13.25;;;;;-146.80;100.00;64830.25;5076858;27;45500;-65
2021/09/20 06:32:24;;;;;;;;;15.50;14.25;;;;;-146.80;100.00;64830.25;5077443;27;45239;-65
2021/09/20 06:34:50;;;;;;;;;15.75;14.00;;;;;-146.80;100.00;64830.25;5077282;27;46186;-66
2021/09/20 06:37:15;;;;;;;;;17.00;15.75;;;;;-146.80;100.00;64830.25;5077748;27;45349;-68
2021/09/20 06:39:40;;;;;;;;;21.25;15.00;;;;;-146.80;100.00;64830.25;5077194;27;45157;-63
2021/09/20 06:42:06;;;;;;;;;18.25;17.00;;;;;-146.80;100.00;64830.25;5077084;27;45382;-67
2021/09/20 06:44:35;;;;;;;;;20.50;18.00;;;;;-146.80;100.00;64830.25;5076752;27;46457;-69
2021/09/20 06:47:01;;;;;;;;;21.75;17.50;;;;;-146.80;100.00;64830.25;5077229;27;45894;-67
2021/09/20 06:49:26;;;;;;;;;24.00;17.50;;;;;-146.80;100.00;64830.25;5076996;28;45413;-69
2021/09/20 06:51:51;;;;;;;;;19.25;16.75;;;;;-146.80;100.00;64830.25;5077064;28;45635;-64
2021/09/20 06:54:18;;;;;;;;;24.75;18.75;;;;;-146.80;100.00;64830.25;5076500;27;46156;-65
2021/09/20 06:56:44;;;;;;;;;22.75;19.50;;;;;-146.80;100.00;64830.25;5076692;27;45389;-66
2021/09/20 06:59:09;;;;;;;;;19.00;18.25;;;;;-146.80;100.00;64830.25;5076400;27;45297;-64
2021/09/20 07:01:35;;;;;;;;;22.25;20.50;;;;;-146.80;100.00;64830.25;5076610;27;45306;-65
2021/09/20 07:04:00;;;;;;;;;20.25;15.50;;;;;-146.80;100.00;64830.25;5076466;27;45496;-64
2021/09/20 07:06:26;;;;;;;;;19.00;17.25;;;;;-146.80;100.00;64830.25;5076366;27;45169;-67
2021/09/20 07:08:51;;;;;;;;;16.00;14.50;;;;;-146.80;100.00;64830.25;5076760;27;45483;-64
2021/09/20 07:11:16;;;;;;;;;19.50;17.25;;;;;-146.80;100.00;64830.25;5076405;27;45420;-64
2021/09/20 07:13:42;;;;;;;;;21.50;19.50;;;;;-146.80;100.00;64830.25;5076144;27;45351;-66
2021/09/20 07:16:07;;;;;;;;;20.75;16.75;;;;;-146.80;100.00;64830.25;5076128;27;45219;-64
2021/09/20 07:18:33;;;;;;;;;24.75;18.75;;;;;-146.80;100.00;64830.25;5076568;27;45453;-65
2021/09/20 07:20:58;;;;;;;;;22.50;17.25;;;;;-146.80;100.00;64830.25;5075606;28;45428;-67
2021/09/20 07:23:24;;;;;;;;;16.50;15.50;;;;;-146.80;100.00;64830.25;5075949;27;46015;-65
2021/09/20 07:25:49;;;;;;;;;24.00;17.50;;;;;-146.80;100.00;64830.25;5074709;28;45333;-63
2021/09/20 07:28:15;;;;;;;;;24.75;21.00;;;;;-146.80;100.00;64830.25;5076202;27;45396;-67
2021/09/20 07:30:41;;;;;;;;;20.00;18.25;;;;;-146.80;100.00;64830.25;5076374;27;45526;-62
2021/09/20 07:33:08;;;;;;;;;21.25;18.75;;;;;-146.80;100.00;64830.25;5075768;27;45689;-62
2021/09/20 07:35:33;;;;;;;;;23.75;18.00;;;;;-146.80;100.00;64830.25;5076249;27;45434;-64
2021/09/20 07:37:59;;;;;;;;;20.25;18.50;;;;;-146.80;100.00;64830.25;5076205;27;45899;-64
2021/09/20 07:40:27;;;;;;;;;16.25;14.50;;;;;-146.80;100.00;64830.25;5091304;27;45546;-67
2021/09/20 07:42:54;;;;;;;;;21.75;18.25;;;;;-146.80;100.00;64830.25;5075353;28;45516;-64
2021/09/20 07:45:20;;;;;;;;;18.25;16.75;;;;;-146.80;100.00;64830.25;5075755;27;45551;-66
2021/09/20 07:47:46;;;;;;;;;20.25;15.50;;;;;-146.80;100.00;64830.25;5075843;27;45413;-65
2021/09/20 07:50:14;;;;;;;;;16.75;16.25;;;;;-146.80;100.00;64830.25;5075149;28;45306;-64
2021/09/20 07:52:40;;;;;;;;;19.00;18.25;;;;;-146.80;100.00;64830.25;5091737;27;45368;-65
2021/09/20 07:55:06;;;;;;;;;19.25;16.50;;;;;-146.80;100.00;64830.25;5075850;27;45324;-65
2021/09/20 07:57:32;;;;;;;;;16.50;16.50;;;;;-146.80;100.00;64830.25;5076224;28;45422;-64
2021/09/20 07:59:58;;;;;;;;;18.25;16.25;;;;;-146.80;100.00;64830.25;5075803;27;45594;-67
2021/09/20 08:02:23;;;;;;;;;18.75;14.00;;;;;-146.80;100.00;64830.25;5073921;28;47130;-61
2021/09/20 08:04:48;;;;;;;;;20.00;16.00;;;;;-146.80;100.00;64830.25;5075104;27;45416;-63
2021/09/20 08:07:14;;;;;;;;;17.75;16.75;;;;;-146.80;100.00;64830.25;5075565;27;45327;-68
2021/09/20 08:09:39;;;;;;;;;19.50;17.25;;;;;-146.80;100.00;64830.25;5076156;27;45566;-62
2021/09/20 08:12:05;;;;;;;;;18.75;13.75;;;;;-146.80;100.00;64830.25;5074623;28;47181;-64
2021/09/20 08:14:31;;;;;;;;;18.50;18.25;;;;;-146.80;100.00;64830.25;5075933;27;45362;-68
2021/09/20 08:16:56;;;;;;;;;14.75;12.75;;;;;-146.80;100.00;64830.25;5075531;27;45321;-74
2021/09/20 08:19:21;;;;;;;;;18.50;15.75;;;;;-146.80;100.00;64830.25;5075597;27;45619;-73
2021/09/20 08:21:48;;;;;;;;;18.00;15.25;;;;;-146.80;100.00;64830.25;5075348;27;46219;-66
2021/09/20 08:24:15;;;;;;;;;20.75;15.50;;;;;-146.80;100.00;64830.25;5074003;28;45445;-66
2021/09/20 08:26:40;;;;;;;;;17.00;15.50;;;;;-146.80;100.00;64830.25;5073889;28;45301;-63
2021/09/20 08:29:06;;;;;;;;;19.25;16.00;;;;;-146.80;100.00;64830.25;5075447;27;45616;-62
2021/09/20 08:31:31;;;;;;;;;19.50;17.75;;;;;-146.80;100.00;64830.25;5075416;27;46614;-66
2021/09/20 08:33:57;;;;;;;;;18.75;16.50;;;;;-146.80;100.00;64830.25;5075254;27;45311;-67
2021/09/20 08:36:22;;;;;;;;;17.00;14.75;;;;;-146.80;100.00;64830.25;5075377;27;45222;-70
2021/09/20 08:38:48;;;;;;;;;19.75;18.00;;;;;-146.80;100.00;64830.25;5091411;27;45507;-67
2021/09/20 08:41:15;;;;;;;;;17.75;11.00;;;;;-146.80;100.00;64830.25;5075203;27;45549;-66
2021/09/20 08:43:41;;;;;;;;;15.75;12.75;;;;;-146.80;100.00;64830.25;5075370;28;45424;-64
2021/09/20 08:46:07;;;;;;;;;20.00;14.00;;;;;-146.80;100.00;64830.25;5073595;28;45397;-69
2021/09/20 08:48:40;;;;;;;;;14.50;14.00;;;;;-146.80;100.00;64830.25;5075454;27;45337;-63
2021/09/20 08:51:06;;;;;;;;;20.00;16.50;;;;;-146.80;100.00;64830.25;5075421;27;45578;-65
2021/09/20 08:53:32;;;;;;;;;13.25;13.25;;;;;-146.80;100.00;64830.25;5077847;27;45559;-63
2021/09/20 08:55:58;;;;;;;;;14.00;12.25;;;;;-146.80;100.00;64830.25;5077282;28;45350;-68
2021/09/20 08:58:25;;;;;;;;;19.25;15.25;;;;;-146.80;100.00;64830.25;5078814;28;45359;-67
2021/09/20 09:00:51;;;;;;;;;18.00;14.75;;;;;-146.80;100.00;64830.25;5078240;27;46409;-71
2021/09/20 09:03:21;;;;;;;;;16.50;14.25;;;;;-146.80;100.00;64830.25;5078689;27;45228;-64
2021/09/20 09:05:48;;;;;;;;;25.00;17.75;;;;;-146.80;100.00;64830.25;5094263;27;45499;-70
2021/09/20 09:08:18;;;;;;;;;18.00;16.75;;;;;-146.80;100.00;64830.25;5078525;27;45673;-65
2021/09/20 09:10:47;;;;;;;;;19.00;15.25;;;;;-146.80;100.00;64830.25;5078564;27;45389;-68
2021/09/20 09:13:14;;;;;;;;;21.00;17.75;;;;;-146.80;100.00;64830.25;5078164;27;45461;-66
2021/09/20 09:15:45;;;;;;;;;17.25;16.25;;;;;-146.80;100.00;64830.25;5078111;27;45367;-69
2021/09/20 09:18:11;;;;;;;;;15.75;14.75;;;;;-146.80;100.00;64830.25;5078348;27;45500;-63
2021/09/20 09:20:41;;;;;;;;;16.00;13.75;;;;;-146.80;100.00;64830.25;5078555;27;45392;-68
2021/09/20 09:23:13;;;;;;;;;16.00;14.25;;;;;-146.80;100.00;64830.25;5077366;28;45410;-67
2021/09/20 09:25:41;;;;;;;;;12.25;11.00;;;;;-146.80;100.00;64830.25;5078528;28;45467;-66
2021/09/20 09:28:17;;;;;;;;;17.00;16.75;;;;;-146.80;100.00;64830.25;5078277;28;45238;-70
2021/09/20 09:30:49;;;;;;;;;14.25;12.25;;;;;-146.80;100.00;64830.25;5077913;27;45398;-64
2021/09/20 09:33:46;;;;;;;;;20.25;16.25;;;;;-146.80;100.00;64830.25;5078160;27;45300;-62
2021/09/20 09:36:14;;;;;;;;;19.50;16.00;;;;;-146.80;100.00;64830.25;5093785;27;45267;-63
2021/09/20 09:39:03;;;;;;;;;15.25;13.75;;;;;-146.80;100.00;64830.25;5078109;27;45359;-63
2021/09/20 09:41:40;;;;;;;;;15.75;12.50;;;;;-146.80;100.00;64830.25;5093189;27;47005;-63
2021/09/20 09:44:13;;;;;;;;;17.75;16.00;;;;;-146.80;100.00;64830.25;5076960;28;45243;-70
2021/09/20 09:46:44;;;;;;;;;17.75;16.00;;;;;-146.80;100.00;64830.25;5078184;27;45451;-68
2021/09/20 09:49:21;;;;;;;;;21.75;17.50;;;;;-146.80;100.00;64830.25;5077936;27;45383;-65
2021/09/20 09:52:03;;;;;;;;;15.25;12.75;;;;;-146.80;100.00;64830.25;5077686;27;48660;-62
2021/09/20 09:54:31;;;;;;;;;13.50;12.25;;;;;-146.80;100.00;64830.25;5077257;27;45273;-70
2021/09/20 09:57:33;;;;;;;;;17.50;15.00;;;;;-146.80;100.00;64830.25;5077968;27;45405;-70
2021/09/20 10:00:09;;;;;;;;;15.50;15.00;;;;;-146.80;100.00;64830.25;5035598;28;45480;-68
2021/09/20 10:02:37;;;;;;;;;17.50;15.25;;;;;-146.80;100.00;64830.25;5071959;27;45527;-68
2021/09/20 10:05:09;;;;;;;;;16.00;15.00;;;;;-146.80;100.00;64830.25;5076795;27;45399;-66
2021/09/20 10:07:40;;;;;;;;;18.00;16.25;;;;;-146.80;100.00;64830.25;5077551;27;45512;-73
2021/09/20 10:10:13;;;;;;;;;17.00;15.50;;;;;-146.80;100.00;64830.25;5077769;27;45203;-65
2021/09/20 10:12:40;;;;;;;;;18.50;17.25;;;;;-146.80;100.00;64830.25;5077756;28;46583;-72
2021/09/20 10:15:08;;;;;;;;;15.00;13.00;;;;;-146.80;100.00;64830.25;5092903;27;45433;-75
2021/09/20 10:17:35;;;;;;;;;18.50;16.75;;;;;-146.80;100.00;64830.25;5092929;27;45229;-68
2021/09/20 10:20:01;;;;;;;;;21.75;15.50;;;;;-146.80;100.00;64830.25;5076483;28;45383;-70
2021/09/20 10:22:28;;;;;;;;;16.50;12.00;;;;;-146.80;100.00;64830.25;5076960;27;47493;-65
2021/09/20 10:24:59;;;;;;;;;19.00;16.75;;;;;-146.80;100.00;64830.25;5077143;27;45437;-68
2021/09/20 10:27:27;;;;;;;;;16.00;14.25;;;;;-146.80;100.00;64830.25;5077255;27;45328;-65
2021/09/20 10:30:13;;;;;;;;;22.50;17.25;;;;;-146.80;100.00;64830.25;5077154;27;45602;-66
2021/09/20 10:32:42;;;;;;;;;15.50;14.00;;;;;-146.80;100.00;64830.25;5077066;27;45413;-68
2021/09/20 10:35:40;;;;;;;;;17.00;15.25;;;;;-146.80;100.00;64830.25;5077425;28;45201;-67
2021/09/20 10:38:21;;;;;;;;;18.75;16.25;;;;;-146.80;100.00;64830.25;5077106;28;45322;-66
2021/09/20 10:41:23;;;;;;;;;15.50;13.25;;;;;-146.80;100.00;64830.25;5076938;27;45584;-69
2021/09/20 10:44:04;;;;;;;;;18.00;15.00;;;;;-146.80;100.00;64830.25;5054691;27;45524;-67
2021/09/20 10:46:33;;;;;;;;;23.00;19.25;;;;;-146.80;100.00;64830.25;5076814;27;45375;-69
2021/09/20 10:49:03;;;;;;;;;21.00;16.00;;;;;-146.80;100.00;64830.25;5076556;27;45339;-67
2021/09/20 10:51:39;;;;;;;;;22.25;18.75;;;;;-146.80;100.00;64830.25;5076896;27;45326;-72
2021/09/20 10:54:14;;;;;;;;;19.50;17.75;;;;;-146.80;100.00;64830.25;5091390;27;48605;-63
2021/09/20 10:56:40;;;;;;;;;24.50;18.50;;;;;-146.80;100.00;64830.25;5076766;28;45415;-70
2021/09/20 10:59:08;;;;;;;;;22.75;20.75;;;;;-146.80;100.00;64830.25;5076637;27;45354;-71
2021/09/20 11:01:34;;;;;;;;;24.25;22.00;;;;;-146.80;100.00;64830.25;5092694;27;45808;-67